This is the latest recevied weather packets stored in our database for station/object WD4HMR. If no packets are shown the sender has not sent any weather packets the latest 10 day(s).
| Time | Temp. | Humidity | Pressure | Rain* | Wind** | Luminosity | Snow |
|---|---|---|---|---|---|---|---|
| 1778013903 | 23.89° C | 57% | 1014.5 hPa | 0 mm | - | 1121 W/m² | - |
| 1778013304 | 23.89° C | 57% | 1014.5 hPa | 0 mm | - | 1152 W/m² | - |
| 1778011514 | 25.56° C | 54% | 1015 hPa | 0 mm | - | 1230 W/m² | - |
| 1778010904 | 24.44° C | 55% | 1015.1 hPa | 0 mm | - | 1252 W/m² | - |
| 1778010004 | 24.44° C | 55% | 1015.1 hPa | 0 mm | - | 1279 W/m² | - |
| 1778009405 | 23.89° C | 55% | 1015.2 hPa | 0 mm | - | 1294 W/m² | - |
| 1778008204 | 23.89° C | 55% | 1015.4 hPa | 0 mm | - | 1315 W/m² | - |
| 1778007604 | 23.89° C | 55% | 1015.5 hPa | 0 mm | - | 1321 W/m² | - |
| 1778006404 | 23.33° C | 57% | 1015.7 hPa | 0 mm | - | 1324 W/m² | - |
| 1778004604 | 22.78° C | 57% | 1016 hPa | 0 mm | - | 1308 W/m² | - |
| 1778004304 | 22.78° C | 56% | 1016 hPa | 0 mm | - | 1302 W/m² | - |
| 1778002804 | 22.78° C | 56% | 1016 hPa | 0 mm | - | 1265 W/m² | - |
| 1778001604 | 22.22° C | 57% | 1016.3 hPa | 0 mm | - | 1223 W/m² | - |
| 1778001005 | 21.67° C | 59% | 1016.4 hPa | 0 mm | - | 1199 W/m² | - |
| 1778000404 | 21.67° C | 57% | 1016.4 hPa | 0 mm | - | 1172 W/m² | - |
| 1778000104 | 21.67° C | 57% | 1016.5 hPa | 0 mm | - | 1158 W/m² | - |
| 1777999204 | 21.11° C | 59% | 1016.4 hPa | 0 mm | - | 1112 W/m² | - |
| 1777998604 | 21.11° C | 58% | 1016.4 hPa | 0 mm | - | 1078 W/m² | - |
| 1777998004 | 21.11° C | 57% | 1016.6 hPa | 0 mm | - | 1043 W/m² | - |
| 1777997704 | 21.11° C | 60% | 1016.6 hPa | 0 mm | - | 1025 W/m² | - |
| 1777997404 | 21.11° C | 61% | 1016.6 hPa | 0 mm | - | 1007 W/m² | - |
| 1777996504 | 20.56° C | 62% | 1016.4 hPa | 0 mm | - | 949 W/m² | - |
| 1777995604 | 20.56° C | 59% | 1016.6 hPa | 0 mm | - | 889 W/m² | - |
| 1777995004 | 20.56° C | 61% | 1016.5 hPa | 0 mm | - | 848 W/m² | - |
| 1777993504 | 20° C | 59% | 1016.3 hPa | 0 mm | - | 741 W/m² | - |
* Rain latest hour (hover to see other rain measurements)
** Current wind speed in m/s (hover to see current wind gust speed)